sensor_id;sensor_type;location;lat;lon;timestamp;pressure;altitude;pressure_sealevel;temperature;humidity
5679;BME280;2862;52.560;13.566;2024-02-21T00:09:39;101161.22;;;8.25;100.00
5679;BME280;2862;52.560;13.566;2024-02-21T00:19:43;101146.00;;;8.27;100.00
5679;BME280;2862;52.560;13.566;2024-02-21T00:29:46;101139.34;;;8.20;100.00
5679;BME280;2862;52.560;13.566;2024-02-21T00:39:51;101133.16;;;8.19;100.00
5679;BME280;2862;52.560;13.566;2024-02-21T00:49:54;101126.25;;;8.17;100.00
5679;BME280;2862;52.560;13.566;2024-02-21T00:59:58;101114.94;;;8.13;100.00
5679;BME280;2862;52.560;13.566;2024-02-21T01:10:01;101100.69;;;8.14;100.00
5679;BME280;2862;52.560;13.566;2024-02-21T01:20:07;101091.63;;;8.17;100.00
5679;BME280;2862;52.560;13.566;2024-02-21T01:30:10;101087.56;;;8.11;100.00
5679;BME280;2862;52.560;13.566;2024-02-21T01:40:15;101074.69;;;8.18;100.00
5679;BME280;2862;52.560;13.566;2024-02-21T01:50:18;101074.56;;;8.19;100.00
5679;BME280;2862;52.560;13.566;2024-02-21T02:00:24;101060.31;;;8.20;100.00
5679;BME280;2862;52.560;13.566;2024-02-21T02:10:27;101043.56;;;8.18;100.00
5679;BME280;2862;52.560;13.566;2024-02-21T02:20:31;101033.34;;;8.25;100.00
5679;BME280;2862;52.560;13.566;2024-02-21T02:30:36;101030.47;;;8.28;100.00
5679;BME280;2862;52.560;13.566;2024-02-21T02:40:39;101020.44;;;8.06;100.00
5679;BME280;2862;52.560;13.566;2024-02-21T02:50:44;101023.28;;;7.90;100.00
5679;BME280;2862;52.560;13.566;2024-02-21T03:00:47;101000.69;;;7.83;100.00
5679;BME280;2862;52.560;13.566;2024-02-21T03:10:51;100985.31;;;7.74;100.00
5679;BME280;2862;52.560;13.566;2024-02-21T03:20:54;100980.97;;;7.73;100.00
5679;BME280;2862;52.560;13.566;2024-02-21T03:30:58;100959.09;;;7.55;100.00
5679;BME280;2862;52.560;13.566;2024-02-21T03:41:01;100964.97;;;7.60;100.00
5679;BME280;2862;52.560;13.566;2024-02-21T03:51:06;100957.22;;;7.57;100.00
5679;BME280;2862;52.560;13.566;2024-02-21T04:01:09;100931.41;;;7.45;100.00
5679;BME280;2862;52.560;13.566;2024-02-21T04:11:13;100930.25;;;7.49;100.00
5679;BME280;2862;52.560;13.566;2024-02-21T04:21:16;100912.06;;;7.56;100.00
5679;BME280;2862;52.560;13.566;2024-02-21T04:31:21;100893.53;;;7.41;100.00
5679;BME280;2862;52.560;13.566;2024-02-21T04:41:24;100873.00;;;7.43;100.00
5679;BME280;2862;52.560;13.566;2024-02-21T04:51:28;100847.66;;;7.38;100.00
5679;BME280;2862;52.560;13.566;2024-02-21T05:01:31;100843.72;;;7.31;100.00
5679;BME280;2862;52.560;13.566;2024-02-21T05:11:36;100841.91;;;7.44;100.00
5679;BME280;2862;52.560;13.566;2024-02-21T05:21:39;100841.38;;;7.39;100.00
5679;BME280;2862;52.560;13.566;2024-02-21T05:31:55;100831.63;;;7.52;100.00
5679;BME280;2862;52.560;13.566;2024-02-21T05:41:59;100838.94;;;7.49;100.00
5679;BME280;2862;52.560;13.566;2024-02-21T05:52:04;100818.94;;;7.43;100.00
5679;BME280;2862;52.560;13.566;2024-02-21T06:02:08;100815.44;;;7.42;100.00
5679;BME280;2862;52.560;13.566;2024-02-21T06:12:12;100797.47;;;7.46;100.00
5679;BME280;2862;52.560;13.566;2024-02-21T06:22:15;100800.00;;;7.48;100.00
5679;BME280;2862;52.560;13.566;2024-02-21T06:32:19;100808.22;;;7.57;100.00
5679;BME280;2862;52.560;13.566;2024-02-21T06:42:24;100809.59;;;7.63;100.00
5679;BME280;2862;52.560;13.566;2024-02-21T06:52:28;100816.06;;;7.71;100.00
5679;BME280;2862;52.560;13.566;2024-02-21T07:02:31;100811.28;;;7.77;100.00
5679;BME280;2862;52.560;13.566;2024-02-21T07:12:35;100811.94;;;7.80;100.00
5679;BME280;2862;52.560;13.566;2024-02-21T07:22:40;100811.28;;;7.77;100.00
5679;BME280;2862;52.560;13.566;2024-02-21T07:32:44;100808.84;;;7.86;100.00
5679;BME280;2862;52.560;13.566;2024-02-21T07:42:47;100810.84;;;8.45;100.00
5679;BME280;2862;52.560;13.566;2024-02-21T07:52:51;100800.03;;;8.22;100.00
5679;BME280;2862;52.560;13.566;2024-02-21T08:02:54;100797.91;;;8.15;100.00
5679;BME280;2862;52.560;13.566;2024-02-21T08:12:58;100792.16;;;8.08;100.00
5679;BME280;2862;52.560;13.566;2024-02-21T08:23:02;100776.16;;;8.21;100.00
5679;BME280;2862;52.560;13.566;2024-02-21T08:33:06;100786.06;;;8.19;100.00
5679;BME280;2862;52.560;13.566;2024-02-21T08:43:09;100791.22;;;8.46;100.00
5679;BME280;2862;52.560;13.566;2024-02-21T08:53:13;100789.75;;;8.66;100.00
5679;BME280;2862;52.560;13.566;2024-02-21T09:03:16;100788.09;;;8.76;100.00
5679;BME280;2862;52.560;13.566;2024-02-21T09:13:20;100786.97;;;8.91;100.00
5679;BME280;2862;52.560;13.566;2024-02-21T09:23:24;100786.59;;;8.85;100.00
5679;BME280;2862;52.560;13.566;2024-02-21T09:33:28;100768.75;;;9.20;100.00
5679;BME280;2862;52.560;13.566;2024-02-21T09:43:33;100761.84;;;9.40;100.00
5679;BME280;2862;52.560;13.566;2024-02-21T09:53:40;100761.78;;;9.87;100.00
5679;BME280;2862;52.560;13.566;2024-02-21T10:03:47;100758.81;;;10.12;100.00
5679;BME280;2862;52.560;13.566;2024-02-21T10:13:51;100763.56;;;9.97;100.00
5679;BME280;2862;52.560;13.566;2024-02-21T10:24:05;100752.53;;;10.02;100.00
5679;BME280;2862;52.560;13.566;2024-02-21T10:34:16;100764.03;;;10.14;100.00
5679;BME280;2862;52.560;13.566;2024-02-21T10:44:20;100750.78;;;10.34;99.36
5679;BME280;2862;52.560;13.566;2024-02-21T10:54:39;100736.91;;;10.52;99.26
5679;BME280;2862;52.560;13.566;2024-02-21T11:04:46;100721.41;;;10.34;98.96
5679;BME280;2862;52.560;13.566;2024-02-21T11:14:51;100721.66;;;10.09;100.00
5679;BME280;2862;52.560;13.566;2024-02-21T11:24:55;100709.88;;;10.11;100.00
5679;BME280;2862;52.560;13.566;2024-02-21T11:35:19;100682.38;;;10.64;100.00
5679;BME280;2862;52.560;13.566;2024-02-21T11:45:25;100665.16;;;10.99;98.85
5679;BME280;2862;52.560;13.566;2024-02-21T11:55:30;100648.56;;;11.35;95.80
5679;BME280;2862;52.560;13.566;2024-02-21T12:05:33;100632.50;;;11.26;95.43
5679;BME280;2862;52.560;13.566;2024-02-21T12:15:39;100628.03;;;11.05;93.81
5679;BME280;2862;52.560;13.566;2024-02-21T12:25:43;100600.44;;;11.45;91.89
5679;BME280;2862;52.560;13.566;2024-02-21T12:35:48;100575.31;;;11.86;89.93
5679;BME280;2862;52.560;13.566;2024-02-21T12:45:52;100575.91;;;12.00;87.34
5679;BME280;2862;52.560;13.566;2024-02-21T12:55:56;100555.56;;;11.97;86.87
5679;BME280;2862;52.560;13.566;2024-02-21T13:06:00;100553.19;;;11.94;87.92
5679;BME280;2862;52.560;13.566;2024-02-21T13:16:06;100541.47;;;11.95;88.13
5679;BME280;2862;52.560;13.566;2024-02-21T13:26:10;100533.00;;;11.70;89.73
5679;BME280;2862;52.560;13.566;2024-02-21T13:36:15;100514.06;;;11.43;91.17
5679;BME280;2862;52.560;13.566;2024-02-21T13:46:18;100506.41;;;11.19;91.72
5679;BME280;2862;52.560;13.566;2024-02-21T13:56:22;100506.56;;;11.27;92.12
5679;BME280;2862;52.560;13.566;2024-02-21T14:06:25;100499.03;;;11.11;93.19
5679;BME280;2862;52.560;13.566;2024-02-21T14:16:30;100490.69;;;10.95;93.70
5679;BME280;2862;52.560;13.566;2024-02-21T14:26:33;100484.19;;;10.88;93.36
5679;BME280;2862;52.560;13.566;2024-02-21T14:36:38;100471.13;;;10.95;92.79
5679;BME280;2862;52.560;13.566;2024-02-21T14:46:42;100450.44;;;10.97;92.08
5679;BME280;2862;52.560;13.566;2024-02-21T14:56:46;100447.72;;;10.87;91.21
5679;BME280;2862;52.560;13.566;2024-02-21T15:06:49;100429.16;;;10.95;91.00
5679;BME280;2862;52.560;13.566;2024-02-21T15:16:53;100413.53;;;11.00;90.71
5679;BME280;2862;52.560;13.566;2024-02-21T15:26:56;100387.34;;;10.94;90.17
5679;BME280;2862;52.560;13.566;2024-02-21T15:37:01;100372.28;;;10.93;89.63
5679;BME280;2862;52.560;13.566;2024-02-21T15:47:04;100356.63;;;10.69;90.98
5679;BME280;2862;52.560;13.566;2024-02-21T15:57:09;100335.75;;;10.53;91.05
5679;BME280;2862;52.560;13.566;2024-02-21T16:07:12;100312.13;;;10.18;91.78
5679;BME280;2862;52.560;13.566;2024-02-21T16:17:16;100310.69;;;10.04;92.63
5679;BME280;2862;52.560;13.566;2024-02-21T16:27:19;100309.03;;;9.82;94.35
5679;BME280;2862;52.560;13.566;2024-02-21T16:37:23;100306.13;;;9.65;94.28
5679;BME280;2862;52.560;13.566;2024-02-21T16:47:26;100297.16;;;9.45;94.87
5679;BME280;2862;52.560;13.566;2024-02-21T16:57:30;100299.03;;;9.33;93.92
5679;BME280;2862;52.560;13.566;2024-02-21T17:07:34;100298.78;;;9.15;94.23
5679;BME280;2862;52.560;13.566;2024-02-21T17:17:39;100291.56;;;9.06;94.97
5679;BME280;2862;52.560;13.566;2024-02-21T17:27:41;100280.78;;;9.08;93.95
5679;BME280;2862;52.560;13.566;2024-02-21T17:37:46;100255.66;;;8.89;94.75
5679;BME280;2862;52.560;13.566;2024-02-21T17:47:49;100225.25;;;8.81;95.23
5679;BME280;2862;52.560;13.566;2024-02-21T17:57:54;100232.41;;;8.80;95.57
5679;BME280;2862;52.560;13.566;2024-02-21T18:07:57;100212.00;;;8.69;96.35
5679;BME280;2862;52.560;13.566;2024-02-21T18:18:02;100190.94;;;8.66;97.06
5679;BME280;2862;52.560;13.566;2024-02-21T18:28:05;100176.22;;;8.51;98.61
5679;BME280;2862;52.560;13.566;2024-02-21T18:38:10;100171.13;;;8.48;98.83
5679;BME280;2862;52.560;13.566;2024-02-21T18:48:13;100139.22;;;8.37;100.00
5679;BME280;2862;52.560;13.566;2024-02-21T18:58:17;100105.47;;;8.37;100.00
5679;BME280;2862;52.560;13.566;2024-02-21T19:08:20;100092.56;;;8.42;100.00
5679;BME280;2862;52.560;13.566;2024-02-21T19:18:24;100066.28;;;8.49;100.00
5679;BME280;2862;52.560;13.566;2024-02-21T19:28:27;100034.69;;;8.44;100.00
5679;BME280;2862;52.560;13.566;2024-02-21T19:38:32;100026.38;;;8.38;100.00
5679;BME280;2862;52.560;13.566;2024-02-21T19:48:35;100008.41;;;8.19;100.00
5679;BME280;2862;52.560;13.566;2024-02-21T19:58:39;99982.69;;;8.29;100.00
5679;BME280;2862;52.560;13.566;2024-02-21T20:08:42;99990.97;;;8.26;100.00
5679;BME280;2862;52.560;13.566;2024-02-21T20:18:46;99970.28;;;8.18;100.00
5679;BME280;2862;52.560;13.566;2024-02-21T20:28:51;99944.94;;;8.14;100.00
5679;BME280;2862;52.560;13.566;2024-02-21T20:38:55;99927.03;;;8.26;100.00
5679;BME280;2862;52.560;13.566;2024-02-21T20:48:58;99908.56;;;8.34;100.00
5679;BME280;2862;52.560;13.566;2024-02-21T20:59:02;99898.44;;;8.28;100.00
5679;BME280;2862;52.560;13.566;2024-02-21T21:09:05;99890.44;;;8.49;99.81
5679;BME280;2862;52.560;13.566;2024-02-21T21:19:12;99890.41;;;8.39;99.25
5679;BME280;2862;52.560;13.566;2024-02-21T21:29:15;99873.09;;;8.34;98.84
5679;BME280;2862;52.560;13.566;2024-02-21T21:39:19;99863.44;;;8.33;98.32
5679;BME280;2862;52.560;13.566;2024-02-21T21:49:22;99855.78;;;8.39;97.23
5679;BME280;2862;52.560;13.566;2024-02-21T21:59:27;99847.38;;;8.44;96.62
5679;BME280;2862;52.560;13.566;2024-02-21T22:09:30;99820.44;;;8.37;96.34
5679;BME280;2862;52.560;13.566;2024-02-21T22:19:34;99805.06;;;8.50;94.89
5679;BME280;2862;52.560;13.566;2024-02-21T22:29:37;99798.72;;;8.42;94.58
5679;BME280;2862;52.560;13.566;2024-02-21T22:39:43;99792.84;;;8.58;93.66
5679;BME280;2862;52.560;13.566;2024-02-21T22:49:47;99777.16;;;8.55;93.14
5679;BME280;2862;52.560;13.566;2024-02-21T22:59:51;99751.91;;;8.49;92.47
5679;BME280;2862;52.560;13.566;2024-02-21T23:09:55;99732.81;;;8.54;91.08
5679;BME280;2862;52.560;13.566;2024-02-21T23:20:02;99712.78;;;8.59;90.44
5679;BME280;2862;52.560;13.566;2024-02-21T23:30:07;99697.63;;;8.69;90.46
5679;BME280;2862;52.560;13.566;2024-02-21T23:40:23;99682.63;;;8.68;90.50
5679;BME280;2862;52.560;13.566;2024-02-21T23:50:28;99664.81;;;8.69;89.70
